sensor_id;sensor_type;location;lat;lon;timestamp;temperature;humidity
34572;DHT22;20808;48.974;8.452;2022-09-03T00:01:15;19.00;1.00
34572;DHT22;20808;48.974;8.452;2022-09-03T00:03:46;19.00;1.00
34572;DHT22;20808;48.974;8.452;2022-09-03T00:06:20;19.00;1.00
34572;DHT22;20808;48.974;8.452;2022-09-03T00:08:54;19.00;1.00
34572;DHT22;20808;48.974;8.452;2022-09-03T00:11:26;18.90;1.00
34572;DHT22;20808;48.974;8.452;2022-09-03T00:13:58;19.00;1.00
34572;DHT22;20808;48.974;8.452;2022-09-03T00:16:33;18.90;1.00
34572;DHT22;20808;48.974;8.452;2022-09-03T00:19:03;18.90;1.00
34572;DHT22;20808;48.974;8.452;2022-09-03T00:21:36;18.90;1.00
34572;DHT22;20808;48.974;8.452;2022-09-03T00:24:07;19.00;1.00
34572;DHT22;20808;48.974;8.452;2022-09-03T00:26:36;19.00;1.00
34572;DHT22;20808;48.974;8.452;2022-09-03T00:29:08;18.90;1.00
34572;DHT22;20808;48.974;8.452;2022-09-03T00:31:39;18.90;1.00
34572;DHT22;20808;48.974;8.452;2022-09-03T00:34:11;18.80;1.00
34572;DHT22;20808;48.974;8.452;2022-09-03T00:36:41;18.70;1.00
34572;DHT22;20808;48.974;8.452;2022-09-03T00:39:12;18.60;1.00
34572;DHT22;20808;48.974;8.452;2022-09-03T00:41:47;18.60;1.00
34572;DHT22;20808;48.974;8.452;2022-09-03T00:44:32;18.60;1.00
34572;DHT22;20808;48.974;8.452;2022-09-03T00:47:09;18.60;1.00
34572;DHT22;20808;48.974;8.452;2022-09-03T00:49:45;18.60;1.00
34572;DHT22;20808;48.974;8.452;2022-09-03T00:52:23;18.60;1.00
34572;DHT22;20808;48.974;8.452;2022-09-03T00:54:59;18.50;1.00
34572;DHT22;20808;48.974;8.452;2022-09-03T00:57:35;18.40;1.00
34572;DHT22;20808;48.974;8.452;2022-09-03T01:00:07;18.30;1.00
34572;DHT22;20808;48.974;8.452;2022-09-03T01:02:48;18.20;1.00
34572;DHT22;20808;48.974;8.452;2022-09-03T01:05:24;18.20;1.00
34572;DHT22;20808;48.974;8.452;2022-09-03T01:08:06;18.10;1.00
34572;DHT22;20808;48.974;8.452;2022-09-03T01:10:43;18.00;1.00
34572;DHT22;20808;48.974;8.452;2022-09-03T01:13:15;17.70;1.00
34572;DHT22;20808;48.974;8.452;2022-09-03T01:15:49;17.60;1.00
34572;DHT22;20808;48.974;8.452;2022-09-03T01:18:23;17.40;41.50
34572;DHT22;20808;48.974;8.452;2022-09-03T01:21:07;17.30;99.90
34572;DHT22;20808;48.974;8.452;2022-09-03T01:24:11;17.30;99.90
34572;DHT22;20808;48.974;8.452;2022-09-03T01:26:59;17.30;99.90
34572;DHT22;20808;48.974;8.452;2022-09-03T01:29:35;17.30;99.90
34572;DHT22;20808;48.974;8.452;2022-09-03T01:32:09;17.40;99.90
34572;DHT22;20808;48.974;8.452;2022-09-03T01:34:47;17.40;99.90
34572;DHT22;20808;48.974;8.452;2022-09-03T01:37:25;17.30;99.90
34572;DHT22;20808;48.974;8.452;2022-09-03T01:40:02;17.30;99.90
34572;DHT22;20808;48.974;8.452;2022-09-03T01:42:38;17.30;1.00
34572;DHT22;20808;48.974;8.452;2022-09-03T01:45:21;17.20;1.00
34572;DHT22;20808;48.974;8.452;2022-09-03T01:48:07;17.10;1.00
34572;DHT22;20808;48.974;8.452;2022-09-03T01:50:45;17.10;1.00
34572;DHT22;20808;48.974;8.452;2022-09-03T01:53:27;17.10;1.00
34572;DHT22;20808;48.974;8.452;2022-09-03T01:56:14;17.20;1.00
34572;DHT22;20808;48.974;8.452;2022-09-03T01:58:46;17.20;1.00
34572;DHT22;20808;48.974;8.452;2022-09-03T02:01:22;17.20;6.40
34572;DHT22;20808;48.974;8.452;2022-09-03T02:03:50;17.20;45.60
34572;DHT22;20808;48.974;8.452;2022-09-03T02:06:24;17.20;95.60
34572;DHT22;20808;48.974;8.452;2022-09-03T02:08:51;17.20;99.90
34572;DHT22;20808;48.974;8.452;2022-09-03T02:11:18;17.20;99.90
34572;DHT22;20808;48.974;8.452;2022-09-03T02:13:48;17.20;99.90
34572;DHT22;20808;48.974;8.452;2022-09-03T02:16:19;17.10;99.90
34572;DHT22;20808;48.974;8.452;2022-09-03T02:18:49;17.10;1.00
34572;DHT22;20808;48.974;8.452;2022-09-03T02:21:19;17.10;1.00
34572;DHT22;20808;48.974;8.452;2022-09-03T02:23:47;17.20;99.90
34572;DHT22;20808;48.974;8.452;2022-09-03T02:26:16;17.20;99.90
34572;DHT22;20808;48.974;8.452;2022-09-03T02:28:44;17.30;99.90
34572;DHT22;20808;48.974;8.452;2022-09-03T02:31:12;17.30;99.90
34572;DHT22;20808;48.974;8.452;2022-09-03T02:33:42;17.30;50.80
34572;DHT22;20808;48.974;8.452;2022-09-03T02:36:11;17.40;1.00
34572;DHT22;20808;48.974;8.452;2022-09-03T02:38:40;17.40;1.00
34572;DHT22;20808;48.974;8.452;2022-09-03T02:41:07;17.50;1.00
34572;DHT22;20808;48.974;8.452;2022-09-03T02:43:41;17.50;1.00
34572;DHT22;20808;48.974;8.452;2022-09-03T02:46:13;17.50;1.00
34572;DHT22;20808;48.974;8.452;2022-09-03T02:48:43;17.50;1.00
34572;DHT22;20808;48.974;8.452;2022-09-03T02:51:10;17.50;1.00
34572;DHT22;20808;48.974;8.452;2022-09-03T02:53:37;17.50;1.00
34572;DHT22;20808;48.974;8.452;2022-09-03T02:56:05;17.50;1.00
34572;DHT22;20808;48.974;8.452;2022-09-03T02:58:32;17.60;1.00
34572;DHT22;20808;48.974;8.452;2022-09-03T03:00:59;17.60;1.00
34572;DHT22;20808;48.974;8.452;2022-09-03T03:03:26;17.60;1.00
34572;DHT22;20808;48.974;8.452;2022-09-03T03:05:56;17.60;1.00
34572;DHT22;20808;48.974;8.452;2022-09-03T03:08:25;17.60;99.90
34572;DHT22;20808;48.974;8.452;2022-09-03T03:10:54;17.60;99.90
34572;DHT22;20808;48.974;8.452;2022-09-03T03:13:24;17.60;1.00
34572;DHT22;20808;48.974;8.452;2022-09-03T03:15:50;17.60;99.90
34572;DHT22;20808;48.974;8.452;2022-09-03T03:18:17;17.60;1.00
34572;DHT22;20808;48.974;8.452;2022-09-03T03:20:45;17.60;1.00
34572;DHT22;20808;48.974;8.452;2022-09-03T03:23:14;17.60;99.90
34572;DHT22;20808;48.974;8.452;2022-09-03T03:25:40;17.50;99.90
34572;DHT22;20808;48.974;8.452;2022-09-03T03:28:08;17.50;99.90
34572;DHT22;20808;48.974;8.452;2022-09-03T03:30:37;17.40;1.00
34572;DHT22;20808;48.974;8.452;2022-09-03T03:33:04;17.40;1.00
34572;DHT22;20808;48.974;8.452;2022-09-03T03:35:31;17.40;1.00
34572;DHT22;20808;48.974;8.452;2022-09-03T03:37:59;17.40;1.00
34572;DHT22;20808;48.974;8.452;2022-09-03T03:40:27;17.50;1.00
34572;DHT22;20808;48.974;8.452;2022-09-03T03:42:56;17.50;1.00
34572;DHT22;20808;48.974;8.452;2022-09-03T03:45:23;17.40;1.00
34572;DHT22;20808;48.974;8.452;2022-09-03T03:47:50;17.40;1.00
34572;DHT22;20808;48.974;8.452;2022-09-03T03:50:17;17.40;41.50
34572;DHT22;20808;48.974;8.452;2022-09-03T03:52:44;17.30;99.90
34572;DHT22;20808;48.974;8.452;2022-09-03T03:55:11;17.20;99.90
34572;DHT22;20808;48.974;8.452;2022-09-03T03:57:39;17.20;1.00
34572;DHT22;20808;48.974;8.452;2022-09-03T04:00:07;17.10;1.00
34572;DHT22;20808;48.974;8.452;2022-09-03T04:02:34;17.20;99.90
34572;DHT22;20808;48.974;8.452;2022-09-03T04:05:01;17.20;99.90
34572;DHT22;20808;48.974;8.452;2022-09-03T04:07:27;17.20;1.00
34572;DHT22;20808;48.974;8.452;2022-09-03T04:09:54;17.20;1.00
34572;DHT22;20808;48.974;8.452;2022-09-03T04:12:21;17.10;1.00
34572;DHT22;20808;48.974;8.452;2022-09-03T04:14:49;17.00;99.90
34572;DHT22;20808;48.974;8.452;2022-09-03T04:17:16;16.90;1.00
34572;DHT22;20808;48.974;8.452;2022-09-03T04:19:43;16.80;99.90
34572;DHT22;20808;48.974;8.452;2022-09-03T04:22:10;16.80;1.00
34572;DHT22;20808;48.974;8.452;2022-09-03T04:24:39;17.00;1.00
34572;DHT22;20808;48.974;8.452;2022-09-03T04:27:06;17.00;1.00
34572;DHT22;20808;48.974;8.452;2022-09-03T04:29:33;17.00;99.90
34572;DHT22;20808;48.974;8.452;2022-09-03T04:32:02;16.90;99.90
34572;DHT22;20808;48.974;8.452;2022-09-03T04:34:46;16.80;99.90
34572;DHT22;20808;48.974;8.452;2022-09-03T04:37:12;16.70;1.00
34572;DHT22;20808;48.974;8.452;2022-09-03T04:39:41;16.70;1.00
34572;DHT22;20808;48.974;8.452;2022-09-03T04:42:07;16.70;1.00
34572;DHT22;20808;48.974;8.452;2022-09-03T04:44:34;16.60;1.00
34572;DHT22;20808;48.974;8.452;2022-09-03T04:47:04;16.60;99.90
34572;DHT22;20808;48.974;8.452;2022-09-03T04:49:31;16.60;1.00
34572;DHT22;20808;48.974;8.452;2022-09-03T04:52:00;16.60;1.00
34572;DHT22;20808;48.974;8.452;2022-09-03T04:54:27;16.70;1.00
34572;DHT22;20808;48.974;8.452;2022-09-03T04:56:54;16.80;99.90
34572;DHT22;20808;48.974;8.452;2022-09-03T04:59:20;16.70;99.90
34572;DHT22;20808;48.974;8.452;2022-09-03T05:01:47;16.70;1.00
34572;DHT22;20808;48.974;8.452;2022-09-03T05:04:15;16.80;1.00
34572;DHT22;20808;48.974;8.452;2022-09-03T05:06:42;16.70;1.00
34572;DHT22;20808;48.974;8.452;2022-09-03T05:09:10;16.70;1.00
34572;DHT22;20808;48.974;8.452;2022-09-03T05:11:36;16.70;1.00
34572;DHT22;20808;48.974;8.452;2022-09-03T05:14:03;16.70;1.00
34572;DHT22;20808;48.974;8.452;2022-09-03T05:16:31;16.70;1.00
34572;DHT22;20808;48.974;8.452;2022-09-03T05:18:59;16.70;1.00
34572;DHT22;20808;48.974;8.452;2022-09-03T05:21:28;16.80;1.00
34572;DHT22;20808;48.974;8.452;2022-09-03T05:23:55;16.80;1.00
34572;DHT22;20808;48.974;8.452;2022-09-03T05:26:24;16.90;1.00
34572;DHT22;20808;48.974;8.452;2022-09-03T05:28:53;16.90;99.90
34572;DHT22;20808;48.974;8.452;2022-09-03T05:31:21;17.00;1.00
34572;DHT22;20808;48.974;8.452;2022-09-03T05:33:52;17.00;1.00
34572;DHT22;20808;48.974;8.452;2022-09-03T05:36:20;17.30;99.90
34572;DHT22;20808;48.974;8.452;2022-09-03T05:38:49;17.30;1.00
34572;DHT22;20808;48.974;8.452;2022-09-03T05:41:19;17.50;99.90
34572;DHT22;20808;48.974;8.452;2022-09-03T05:43:47;17.50;99.90
34572;DHT22;20808;48.974;8.452;2022-09-03T05:46:16;17.50;99.90
34572;DHT22;20808;48.974;8.452;2022-09-03T05:48:43;17.70;1.00
34572;DHT22;20808;48.974;8.452;2022-09-03T05:51:11;17.90;1.00
34572;DHT22;20808;48.974;8.452;2022-09-03T05:53:39;17.90;1.00
34572;DHT22;20808;48.974;8.452;2022-09-03T05:56:09;17.90;99.90
34572;DHT22;20808;48.974;8.452;2022-09-03T05:58:38;17.90;1.00
34572;DHT22;20808;48.974;8.452;2022-09-03T06:01:11;17.90;1.00
34572;DHT22;20808;48.974;8.452;2022-09-03T06:03:39;17.90;1.00
34572;DHT22;20808;48.974;8.452;2022-09-03T06:06:06;18.00;99.90
34572;DHT22;20808;48.974;8.452;2022-09-03T06:08:34;18.20;99.90
34572;DHT22;20808;48.974;8.452;2022-09-03T06:11:02;18.20;1.00
34572;DHT22;20808;48.974;8.452;2022-09-03T06:13:31;18.20;1.00
34572;DHT22;20808;48.974;8.452;2022-09-03T06:15:59;18.30;99.90
34572;DHT22;20808;48.974;8.452;2022-09-03T06:18:26;18.30;1.00
34572;DHT22;20808;48.974;8.452;2022-09-03T06:20:55;18.30;1.50
34572;DHT22;20808;48.974;8.452;2022-09-03T06:23:22;18.30;99.90
34572;DHT22;20808;48.974;8.452;2022-09-03T06:25:59;18.50;1.00
34572;DHT22;20808;48.974;8.452;2022-09-03T06:28:26;18.80;1.00
34572;DHT22;20808;48.974;8.452;2022-09-03T06:30:57;18.90;90.90
34572;DHT22;20808;48.974;8.452;2022-09-03T06:33:24;18.90;1.00
34572;DHT22;20808;48.974;8.452;2022-09-03T06:35:52;18.80;1.00
34572;DHT22;20808;48.974;8.452;2022-09-03T06:38:22;18.60;1.00
34572;DHT22;20808;48.974;8.452;2022-09-03T06:40:52;18.50;1.00
34572;DHT22;20808;48.974;8.452;2022-09-03T06:43:19;18.30;1.00
34572;DHT22;20808;48.974;8.452;2022-09-03T06:45:55;18.30;99.90
34572;DHT22;20808;48.974;8.452;2022-09-03T06:48:22;18.40;1.00
34572;DHT22;20808;48.974;8.452;2022-09-03T06:51:00;18.40;50.50
34572;DHT22;20808;48.974;8.452;2022-09-03T06:53:29;18.40;99.90
34572;DHT22;20808;48.974;8.452;2022-09-03T06:55:58;18.60;99.90
34572;DHT22;20808;48.974;8.452;2022-09-03T06:58:28;18.60;99.90
34572;DHT22;20808;48.974;8.452;2022-09-03T07:01:01;18.60;99.90
34572;DHT22;20808;48.974;8.452;2022-09-03T07:03:28;18.70;1.00
34572;DHT22;20808;48.974;8.452;2022-09-03T07:05:59;18.90;1.00
34572;DHT22;20808;48.974;8.452;2022-09-03T07:08:27;18.90;1.00
34572;DHT22;20808;48.974;8.452;2022-09-03T07:10:54;18.90;1.00
34572;DHT22;20808;48.974;8.452;2022-09-03T07:13:21;19.00;99.90
34572;DHT22;20808;48.974;8.452;2022-09-03T07:15:57;18.90;99.90
34572;DHT22;20808;48.974;8.452;2022-09-03T07:18:25;19.00;99.90
34572;DHT22;20808;48.974;8.452;2022-09-03T07:20:57;19.00;1.00
34572;DHT22;20808;48.974;8.452;2022-09-03T07:23:24;19.10;13.70
34572;DHT22;20808;48.974;8.452;2022-09-03T07:25:52;19.10;99.90
34572;DHT22;20808;48.974;8.452;2022-09-03T07:28:19;19.20;1.00
34572;DHT22;20808;48.974;8.452;2022-09-03T07:30:46;19.30;99.90
34572;DHT22;20808;48.974;8.452;2022-09-03T07:33:13;19.40;1.00
34572;DHT22;20808;48.974;8.452;2022-09-03T07:35:41;19.60;1.00
34572;DHT22;20808;48.974;8.452;2022-09-03T07:38:08;19.70;99.90
34572;DHT22;20808;48.974;8.452;2022-09-03T07:40:35;19.60;1.00
34572;DHT22;20808;48.974;8.452;2022-09-03T07:43:03;19.60;99.90
34572;DHT22;20808;48.974;8.452;2022-09-03T07:45:30;19.40;97.60
34572;DHT22;20808;48.974;8.452;2022-09-03T07:47:58;19.20;99.90
34572;DHT22;20808;48.974;8.452;2022-09-03T07:50:25;19.30;1.00
34572;DHT22;20808;48.974;8.452;2022-09-03T07:52:56;19.40;99.90
34572;DHT22;20808;48.974;8.452;2022-09-03T07:55:24;19.10;99.90
34572;DHT22;20808;48.974;8.452;2022-09-03T07:57:55;19.00;1.00
34572;DHT22;20808;48.974;8.452;2022-09-03T08:00:22;18.70;1.00
34572;DHT22;20808;48.974;8.452;2022-09-03T08:02:50;18.60;1.00
34572;DHT22;20808;48.974;8.452;2022-09-03T08:05:17;18.60;1.00
34572;DHT22;20808;48.974;8.452;2022-09-03T08:07:45;18.50;1.00
34572;DHT22;20808;48.974;8.452;2022-09-03T08:10:13;18.40;1.00
34572;DHT22;20808;48.974;8.452;2022-09-03T08:12:41;18.30;1.00
34572;DHT22;20808;48.974;8.452;2022-09-03T08:15:08;18.30;1.00
34572;DHT22;20808;48.974;8.452;2022-09-03T08:17:35;18.30;6.10
34572;DHT22;20808;48.974;8.452;2022-09-03T08:20:03;18.30;52.20
34572;DHT22;20808;48.974;8.452;2022-09-03T08:22:30;18.40;8.20
34572;DHT22;20808;48.974;8.452;2022-09-03T08:24:56;18.50;16.60
34572;DHT22;20808;48.974;8.452;2022-09-03T08:27:25;18.50;1.00
34572;DHT22;20808;48.974;8.452;2022-09-03T08:29:53;18.50;1.00
34572;DHT22;20808;48.974;8.452;2022-09-03T08:32:20;18.40;1.00
34572;DHT22;20808;48.974;8.452;2022-09-03T08:34:47;18.30;1.00
34572;DHT22;20808;48.974;8.452;2022-09-03T08:37:15;18.20;32.00
34572;DHT22;20808;48.974;8.452;2022-09-03T08:39:42;18.20;33.70
34572;DHT22;20808;48.974;8.452;2022-09-03T08:42:32;18.10;99.90
34572;DHT22;20808;48.974;8.452;2022-09-03T08:45:06;18.00;99.90
34572;DHT22;20808;48.974;8.452;2022-09-03T08:47:36;17.90;99.90
34572;DHT22;20808;48.974;8.452;2022-09-03T08:50:08;17.90;99.90
34572;DHT22;20808;48.974;8.452;2022-09-03T08:52:40;17.90;99.90
34572;DHT22;20808;48.974;8.452;2022-09-03T08:55:17;17.90;99.90
34572;DHT22;20808;48.974;8.452;2022-09-03T08:57:48;17.90;99.90
34572;DHT22;20808;48.974;8.452;2022-09-03T09:00:16;18.00;99.90
34572;DHT22;20808;48.974;8.452;2022-09-03T09:03:00;18.20;99.90
34572;DHT22;20808;48.974;8.452;2022-09-03T09:05:41;18.40;76.20
34572;DHT22;20808;48.974;8.452;2022-09-03T09:08:18;19.00;1.00
34572;DHT22;20808;48.974;8.452;2022-09-03T09:10:48;19.20;1.00
34572;DHT22;20808;48.974;8.452;2022-09-03T09:13:26;19.50;1.00
34572;DHT22;20808;48.974;8.452;2022-09-03T09:16:02;19.90;1.00
34572;DHT22;20808;48.974;8.452;2022-09-03T09:18:41;20.00;1.00
34572;DHT22;20808;48.974;8.452;2022-09-03T09:21:13;19.90;1.00
34572;DHT22;20808;48.974;8.452;2022-09-03T09:23:45;19.90;1.00
34572;DHT22;20808;48.974;8.452;2022-09-03T09:26:14;19.90;1.00
34572;DHT22;20808;48.974;8.452;2022-09-03T09:28:52;20.00;1.00
34572;DHT22;20808;48.974;8.452;2022-09-03T09:31:20;20.00;1.00
34572;DHT22;20808;48.974;8.452;2022-09-03T09:33:47;20.10;1.00
34572;DHT22;20808;48.974;8.452;2022-09-03T09:36:16;20.20;1.00
34572;DHT22;20808;48.974;8.452;2022-09-03T09:38:44;20.40;1.00
34572;DHT22;20808;48.974;8.452;2022-09-03T09:41:14;20.50;1.00
34572;DHT22;20808;48.974;8.452;2022-09-03T09:43:43;20.70;1.00
34572;DHT22;20808;48.974;8.452;2022-09-03T09:46:14;20.80;1.00
34572;DHT22;20808;48.974;8.452;2022-09-03T09:48:47;20.90;1.00
34572;DHT22;20808;48.974;8.452;2022-09-03T09:51:18;20.90;1.00
34572;DHT22;20808;48.974;8.452;2022-09-03T09:53:46;21.00;1.00
34572;DHT22;20808;48.974;8.452;2022-09-03T09:56:20;21.00;1.00
34572;DHT22;20808;48.974;8.452;2022-09-03T09:58:48;21.20;1.00
34572;DHT22;20808;48.974;8.452;2022-09-03T10:01:20;21.40;1.00
34572;DHT22;20808;48.974;8.452;2022-09-03T10:03:51;21.60;99.90
34572;DHT22;20808;48.974;8.452;2022-09-03T10:06:22;21.80;1.00
34572;DHT22;20808;48.974;8.452;2022-09-03T10:09:09;21.90;1.00
34572;DHT22;20808;48.974;8.452;2022-09-03T10:11:38;22.30;1.00
34572;DHT22;20808;48.974;8.452;2022-09-03T10:14:12;22.60;1.00
34572;DHT22;20808;48.974;8.452;2022-09-03T10:16:46;22.70;1.00
34572;DHT22;20808;48.974;8.452;2022-09-03T10:19:17;22.80;99.90
34572;DHT22;20808;48.974;8.452;2022-09-03T10:21:52;23.50;99.90
34572;DHT22;20808;48.974;8.452;2022-09-03T10:24:35;25.00;1.00
34572;DHT22;20808;48.974;8.452;2022-09-03T10:27:06;25.90;99.90
34572;DHT22;20808;48.974;8.452;2022-09-03T10:29:37;26.80;99.90
34572;DHT22;20808;48.974;8.452;2022-09-03T10:32:19;26.80;99.90
34572;DHT22;20808;48.974;8.452;2022-09-03T10:34:56;26.90;66.60
34572;DHT22;20808;48.974;8.452;2022-09-03T10:37:34;27.40;1.00
34572;DHT22;20808;48.974;8.452;2022-09-03T10:40:13;27.00;1.00
34572;DHT22;20808;48.974;8.452;2022-09-03T10:42:45;26.70;1.00
34572;DHT22;20808;48.974;8.452;2022-09-03T10:45:21;26.50;1.00
34572;DHT22;20808;48.974;8.452;2022-09-03T10:48:13;26.00;1.00
34572;DHT22;20808;48.974;8.452;2022-09-03T10:50:46;25.80;1.00
34572;DHT22;20808;48.974;8.452;2022-09-03T10:53:25;25.40;15.40
34572;DHT22;20808;48.974;8.452;2022-09-03T10:55:58;25.40;1.00
34572;DHT22;20808;48.974;8.452;2022-09-03T10:58:40;25.20;1.00
34572;DHT22;20808;48.974;8.452;2022-09-03T11:01:18;24.80;33.70
34572;DHT22;20808;48.974;8.452;2022-09-03T11:03:53;24.50;99.90
34572;DHT22;20808;48.974;8.452;2022-09-03T11:06:24;24.30;99.90
34572;DHT22;20808;48.974;8.452;2022-09-03T11:08:56;24.00;99.90
34572;DHT22;20808;48.974;8.452;2022-09-03T11:11:30;23.70;99.90
34572;DHT22;20808;48.974;8.452;2022-09-03T11:14:03;23.70;99.90
34572;DHT22;20808;48.974;8.452;2022-09-03T11:16:37;23.80;99.90
34572;DHT22;20808;48.974;8.452;2022-09-03T11:19:06;24.20;99.90
34572;DHT22;20808;48.974;8.452;2022-09-03T11:21:37;24.30;99.90
34572;DHT22;20808;48.974;8.452;2022-09-03T11:24:11;24.70;99.90
34572;DHT22;20808;48.974;8.452;2022-09-03T11:26:39;25.20;52.70
34572;DHT22;20808;48.974;8.452;2022-09-03T11:29:12;26.00;1.00
34572;DHT22;20808;48.974;8.452;2022-09-03T11:31:55;27.30;1.00
34572;DHT22;20808;48.974;8.452;2022-09-03T11:34:31;28.50;1.00
34572;DHT22;20808;48.974;8.452;2022-09-03T11:37:06;29.50;1.00
34572;DHT22;20808;48.974;8.452;2022-09-03T11:39:41;30.00;1.00
34572;DHT22;20808;48.974;8.452;2022-09-03T11:42:10;30.90;1.00
34572;DHT22;20808;48.974;8.452;2022-09-03T11:44:38;30.80;1.00
34572;DHT22;20808;48.974;8.452;2022-09-03T11:47:15;29.90;1.00
34572;DHT22;20808;48.974;8.452;2022-09-03T11:49:46;29.20;1.00
34572;DHT22;20808;48.974;8.452;2022-09-03T11:52:25;28.40;1.00
34572;DHT22;20808;48.974;8.452;2022-09-03T11:54:52;28.50;1.00
34572;DHT22;20808;48.974;8.452;2022-09-03T11:57:23;28.50;1.00
34572;DHT22;20808;48.974;8.452;2022-09-03T11:59:51;27.70;1.00
34572;DHT22;20808;48.974;8.452;2022-09-03T12:02:26;28.10;1.00
34572;DHT22;20808;48.974;8.452;2022-09-03T12:05:10;29.50;1.00
34572;DHT22;20808;48.974;8.452;2022-09-03T12:07:47;31.10;1.00
34572;DHT22;20808;48.974;8.452;2022-09-03T12:10:24;32.80;1.00
34572;DHT22;20808;48.974;8.452;2022-09-03T12:13:00;33.60;1.00
34572;DHT22;20808;48.974;8.452;2022-09-03T12:15:45;33.70;1.00
34572;DHT22;20808;48.974;8.452;2022-09-03T12:18:20;32.50;1.00
34572;DHT22;20808;48.974;8.452;2022-09-03T12:20:59;31.60;1.00
34572;DHT22;20808;48.974;8.452;2022-09-03T12:23:29;30.70;1.00
34572;DHT22;20808;48.974;8.452;2022-09-03T12:25:57;30.00;1.00
34572;DHT22;20808;48.974;8.452;2022-09-03T12:28:28;28.90;1.00
34572;DHT22;20808;48.974;8.452;2022-09-03T12:31:05;28.70;1.00
34572;DHT22;20808;48.974;8.452;2022-09-03T12:33:34;28.10;1.00
34572;DHT22;20808;48.974;8.452;2022-09-03T12:36:01;27.80;1.00
34572;DHT22;20808;48.974;8.452;2022-09-03T12:38:28;28.20;1.00
34572;DHT22;20808;48.974;8.452;2022-09-03T12:40:56;29.00;1.00
34572;DHT22;20808;48.974;8.452;2022-09-03T12:43:27;29.90;1.00
34572;DHT22;20808;48.974;8.452;2022-09-03T12:45:54;31.80;1.00
34572;DHT22;20808;48.974;8.452;2022-09-03T12:48:21;33.30;1.00
34572;DHT22;20808;48.974;8.452;2022-09-03T12:51:01;33.40;1.00
34572;DHT22;20808;48.974;8.452;2022-09-03T12:53:30;34.00;1.00
34572;DHT22;20808;48.974;8.452;2022-09-03T12:55:59;34.60;1.00
34572;DHT22;20808;48.974;8.452;2022-09-03T12:58:31;34.60;1.00
34572;DHT22;20808;48.974;8.452;2022-09-03T13:01:05;33.60;1.00
34572;DHT22;20808;48.974;8.452;2022-09-03T13:03:42;31.20;1.00
34572;DHT22;20808;48.974;8.452;2022-09-03T13:06:13;29.90;1.00
34572;DHT22;20808;48.974;8.452;2022-09-03T13:08:46;28.90;1.00
34572;DHT22;20808;48.974;8.452;2022-09-03T13:11:15;27.60;1.00
34572;DHT22;20808;48.974;8.452;2022-09-03T13:13:52;27.40;1.00
34572;DHT22;20808;48.974;8.452;2022-09-03T13:16:58;26.70;1.00
34572;DHT22;20808;48.974;8.452;2022-09-03T13:19:36;25.70;1.00
34572;DHT22;20808;48.974;8.452;2022-09-03T13:22:13;25.80;1.00
34572;DHT22;20808;48.974;8.452;2022-09-03T13:24:54;26.50;1.00
34572;DHT22;20808;48.974;8.452;2022-09-03T13:27:30;27.30;1.00
34572;DHT22;20808;48.974;8.452;2022-09-03T13:30:05;27.90;1.00
34572;DHT22;20808;48.974;8.452;2022-09-03T13:32:43;28.40;1.00
34572;DHT22;20808;48.974;8.452;2022-09-03T13:35:23;28.90;1.00
34572;DHT22;20808;48.974;8.452;2022-09-03T13:37:55;29.50;1.00
34572;DHT22;20808;48.974;8.452;2022-09-03T13:40:32;30.40;1.00
34572;DHT22;20808;48.974;8.452;2022-09-03T13:43:03;30.00;1.00
34572;DHT22;20808;48.974;8.452;2022-09-03T13:45:36;30.00;1.00
34572;DHT22;20808;48.974;8.452;2022-09-03T13:48:08;29.70;1.00
34572;DHT22;20808;48.974;8.452;2022-09-03T13:51:00;30.00;1.00
34572;DHT22;20808;48.974;8.452;2022-09-03T13:53:41;30.70;1.00
34572;DHT22;20808;48.974;8.452;2022-09-03T13:56:22;31.30;1.00
34572;DHT22;20808;48.974;8.452;2022-09-03T13:58:56;32.10;1.00
34572;DHT22;20808;48.974;8.452;2022-09-03T14:01:38;33.00;1.00
34572;DHT22;20808;48.974;8.452;2022-09-03T14:04:16;33.40;1.00
34572;DHT22;20808;48.974;8.452;2022-09-03T14:06:54;33.00;1.00
34572;DHT22;20808;48.974;8.452;2022-09-03T14:09:34;31.40;1.00
34572;DHT22;20808;48.974;8.452;2022-09-03T14:12:12;32.10;1.00
34572;DHT22;20808;48.974;8.452;2022-09-03T14:14:48;32.00;1.00
34572;DHT22;20808;48.974;8.452;2022-09-03T14:17:29;31.60;1.00
34572;DHT22;20808;48.974;8.452;2022-09-03T14:20:02;31.60;1.00
34572;DHT22;20808;48.974;8.452;2022-09-03T14:22:42;31.80;1.00
34572;DHT22;20808;48.974;8.452;2022-09-03T14:25:15;32.10;1.00
34572;DHT22;20808;48.974;8.452;2022-09-03T14:27:42;30.50;1.00
34572;DHT22;20808;48.974;8.452;2022-09-03T14:30:18;30.40;1.00
34572;DHT22;20808;48.974;8.452;2022-09-03T14:32:48;30.10;1.00
34572;DHT22;20808;48.974;8.452;2022-09-03T14:35:38;29.10;1.00
34572;DHT22;20808;48.974;8.452;2022-09-03T14:38:45;28.70;1.00
34572;DHT22;20808;48.974;8.452;2022-09-03T14:41:42;28.00;1.00
34572;DHT22;20808;48.974;8.452;2022-09-03T14:44:34;27.50;1.00
34572;DHT22;20808;48.974;8.452;2022-09-03T14:47:12;26.20;1.00
34572;DHT22;20808;48.974;8.452;2022-09-03T14:49:55;25.80;1.00
34572;DHT22;20808;48.974;8.452;2022-09-03T14:52:51;25.90;1.00
34572;DHT22;20808;48.974;8.452;2022-09-03T14:55:42;26.60;1.00
34572;DHT22;20808;48.974;8.452;2022-09-03T14:58:25;26.90;1.00
34572;DHT22;20808;48.974;8.452;2022-09-03T15:00:59;26.70;1.00
34572;DHT22;20808;48.974;8.452;2022-09-03T15:06:44;25.40;1.00
34572;DHT22;20808;48.974;8.452;2022-09-03T15:09:24;25.00;1.00
34572;DHT22;20808;48.974;8.452;2022-09-03T15:11:56;24.50;1.00
34572;DHT22;20808;48.974;8.452;2022-09-03T15:14:34;24.30;1.00
34572;DHT22;20808;48.974;8.452;2022-09-03T15:17:19;23.90;1.00
34572;DHT22;20808;48.974;8.452;2022-09-03T15:19:57;23.70;1.00
34572;DHT22;20808;48.974;8.452;2022-09-03T15:22:36;23.70;1.00
34572;DHT22;20808;48.974;8.452;2022-09-03T15:25:13;23.60;1.00
34572;DHT22;20808;48.974;8.452;2022-09-03T15:27:57;23.50;1.00
34572;DHT22;20808;48.974;8.452;2022-09-03T15:30:33;23.50;1.00
34572;DHT22;20808;48.974;8.452;2022-09-03T15:33:10;23.40;1.00
34572;DHT22;20808;48.974;8.452;2022-09-03T15:35:50;23.20;1.00
34572;DHT22;20808;48.974;8.452;2022-09-03T15:38:27;23.20;1.00
34572;DHT22;20808;48.974;8.452;2022-09-03T15:41:02;23.10;1.00
34572;DHT22;20808;48.974;8.452;2022-09-03T15:43:33;23.00;1.00
34572;DHT22;20808;48.974;8.452;2022-09-03T15:46:04;22.90;1.00
34572;DHT22;20808;48.974;8.452;2022-09-03T15:48:43;23.00;1.00
34572;DHT22;20808;48.974;8.452;2022-09-03T15:51:16;22.80;1.00
34572;DHT22;20808;48.974;8.452;2022-09-03T15:53:50;22.70;1.00
34572;DHT22;20808;48.974;8.452;2022-09-03T15:56:23;22.70;1.00
34572;DHT22;20808;48.974;8.452;2022-09-03T15:58:57;22.60;1.00
34572;DHT22;20808;48.974;8.452;2022-09-03T16:01:33;22.70;1.00
34572;DHT22;20808;48.974;8.452;2022-09-03T16:04:11;22.70;1.00
34572;DHT22;20808;48.974;8.452;2022-09-03T16:06:52;22.90;1.00
34572;DHT22;20808;48.974;8.452;2022-09-03T16:09:34;22.70;1.00
34572;DHT22;20808;48.974;8.452;2022-09-03T16:12:09;22.50;1.00
34572;DHT22;20808;48.974;8.452;2022-09-03T16:14:45;22.60;1.00
34572;DHT22;20808;48.974;8.452;2022-09-03T16:17:25;22.60;1.00
34572;DHT22;20808;48.974;8.452;2022-09-03T16:19:57;22.40;1.00